sensor_id;sensor_type;location;lat;lon;timestamp;pressure;altitude;pressure_sealevel;temperature;humidity
32298;BME280;18782;48.984;8.548;2023-02-02T00:01:23;100735.25;;;6.42;81.95
32298;BME280;18782;48.984;8.548;2023-02-02T00:03:51;100733.47;;;6.41;82.88
32298;BME280;18782;48.984;8.548;2023-02-02T00:06:20;100741.81;;;6.37;82.81
32298;BME280;18782;48.984;8.548;2023-02-02T00:08:48;100743.69;;;6.41;82.96
32298;BME280;18782;48.984;8.548;2023-02-02T00:11:17;100733.47;;;6.41;83.80
32298;BME280;18782;48.984;8.548;2023-02-02T00:13:45;100730.66;;;6.37;83.35
32298;BME280;18782;48.984;8.548;2023-02-02T00:16:33;100745.56;;;6.44;82.96
32298;BME280;18782;48.984;8.548;2023-02-02T00:19:03;100743.06;;;6.45;83.93
32298;BME280;18782;48.984;8.548;2023-02-02T00:21:31;100738.94;;;6.47;83.15
32298;BME280;18782;48.984;8.548;2023-02-02T00:23:59;100739.81;;;6.48;82.59
32298;BME280;18782;48.984;8.548;2023-02-02T00:26:27;100743.56;;;6.38;84.53
32298;BME280;18782;48.984;8.548;2023-02-02T00:28:54;100734.56;;;6.30;84.90
32298;BME280;18782;48.984;8.548;2023-02-02T00:31:23;100757.34;;;6.25;86.14
32298;BME280;18782;48.984;8.548;2023-02-02T00:33:51;100751.09;;;6.20;85.53
32298;BME280;18782;48.984;8.548;2023-02-02T00:36:20;100749.50;;;6.22;85.66
32298;BME280;18782;48.984;8.548;2023-02-02T00:38:48;100743.53;;;6.22;86.20
32298;BME280;18782;48.984;8.548;2023-02-02T00:41:16;100743.34;;;6.19;85.40
32298;BME280;18782;48.984;8.548;2023-02-02T00:43:44;100725.78;;;6.25;85.38
32298;BME280;18782;48.984;8.548;2023-02-02T00:46:16;100728.50;;;6.28;85.29
32298;BME280;18782;48.984;8.548;2023-02-02T00:48:46;100738.44;;;6.38;84.75
32298;BME280;18782;48.984;8.548;2023-02-02T00:51:13;100742.88;;;6.26;84.70
32298;BME280;18782;48.984;8.548;2023-02-02T00:53:41;100741.63;;;6.34;84.62
32298;BME280;18782;48.984;8.548;2023-02-02T00:56:09;100737.94;;;6.29;84.81
32298;BME280;18782;48.984;8.548;2023-02-02T00:58:37;100746.41;;;6.28;85.10
32298;BME280;18782;48.984;8.548;2023-02-02T01:01:14;100742.31;;;6.32;84.69
32298;BME280;18782;48.984;8.548;2023-02-02T01:03:42;100727.16;;;6.35;84.27
32298;BME280;18782;48.984;8.548;2023-02-02T01:06:11;100726.97;;;6.32;85.15
32298;BME280;18782;48.984;8.548;2023-02-02T01:08:38;100736.56;;;6.36;84.84
32298;BME280;18782;48.984;8.548;2023-02-02T01:11:06;100762.78;;;6.32;84.34
32298;BME280;18782;48.984;8.548;2023-02-02T01:13:34;100745.78;;;6.32;84.26
32298;BME280;18782;48.984;8.548;2023-02-02T01:16:03;100733.16;;;6.35;84.33
32298;BME280;18782;48.984;8.548;2023-02-02T01:18:31;100736.69;;;6.37;84.60
32298;BME280;18782;48.984;8.548;2023-02-02T01:21:00;100744.44;;;6.39;84.50
32298;BME280;18782;48.984;8.548;2023-02-02T01:23:30;100755.34;;;6.36;83.77
32298;BME280;18782;48.984;8.548;2023-02-02T01:26:00;100750.59;;;6.42;83.75
32298;BME280;18782;48.984;8.548;2023-02-02T01:28:28;100747.56;;;6.49;82.70
32298;BME280;18782;48.984;8.548;2023-02-02T01:30:56;100755.84;;;6.45;83.26
32298;BME280;18782;48.984;8.548;2023-02-02T01:33:25;100761.16;;;6.48;83.14
32298;BME280;18782;48.984;8.548;2023-02-02T01:35:54;100764.84;;;6.53;82.81
32298;BME280;18782;48.984;8.548;2023-02-02T01:38:23;100755.16;;;6.48;83.08
32298;BME280;18782;48.984;8.548;2023-02-02T01:40:53;100755.84;;;6.45;83.68
32298;BME280;18782;48.984;8.548;2023-02-02T01:43:23;100760.09;;;6.45;83.86
32298;BME280;18782;48.984;8.548;2023-02-02T01:45:52;100765.75;;;6.39;83.73
32298;BME280;18782;48.984;8.548;2023-02-02T01:48:22;100752.97;;;6.39;84.11
32298;BME280;18782;48.984;8.548;2023-02-02T01:50:52;100752.16;;;6.40;84.24
32298;BME280;18782;48.984;8.548;2023-02-02T01:53:22;100749.00;;;6.44;84.59
32298;BME280;18782;48.984;8.548;2023-02-02T01:55:51;100732.44;;;6.38;84.37
32298;BME280;18782;48.984;8.548;2023-02-02T01:58:21;100743.00;;;6.44;85.63
32298;BME280;18782;48.984;8.548;2023-02-02T02:00:50;100752.75;;;6.20;86.95
32298;BME280;18782;48.984;8.548;2023-02-02T02:03:20;100743.97;;;6.15;87.56
32298;BME280;18782;48.984;8.548;2023-02-02T02:05:53;100723.69;;;6.18;88.02
32298;BME280;18782;48.984;8.548;2023-02-02T02:08:26;100741.50;;;6.16;87.89
32298;BME280;18782;48.984;8.548;2023-02-02T02:10:56;100739.19;;;6.21;87.04
32298;BME280;18782;48.984;8.548;2023-02-02T02:13:26;100730.00;;;6.24;86.59
32298;BME280;18782;48.984;8.548;2023-02-02T02:16:13;100726.41;;;6.21;86.91
32298;BME280;18782;48.984;8.548;2023-02-02T02:18:51;100717.81;;;6.35;86.16
32298;BME280;18782;48.984;8.548;2023-02-02T02:21:39;100724.34;;;6.30;85.96
32298;BME280;18782;48.984;8.548;2023-02-02T02:28:15;100726.28;;;6.34;85.29
32298;BME280;18782;48.984;8.548;2023-02-02T02:31:15;100725.41;;;6.34;86.28
32298;BME280;18782;48.984;8.548;2023-02-02T02:33:53;100733.00;;;6.32;86.59
32298;BME280;18782;48.984;8.548;2023-02-02T02:36:29;100732.34;;;6.36;86.10
32298;BME280;18782;48.984;8.548;2023-02-02T02:39:05;100749.47;;;6.37;86.56
32298;BME280;18782;48.984;8.548;2023-02-02T02:41:39;100736.75;;;6.39;86.50
32298;BME280;18782;48.984;8.548;2023-02-02T02:44:10;100736.69;;;6.37;87.08
32298;BME280;18782;48.984;8.548;2023-02-02T02:46:39;100753.44;;;6.32;86.41
32298;BME280;18782;48.984;8.548;2023-02-02T02:49:10;100736.19;;;6.28;86.60
32298;BME280;18782;48.984;8.548;2023-02-02T02:51:43;100737.06;;;6.28;87.20
32298;BME280;18782;48.984;8.548;2023-02-02T02:54:18;100761.91;;;6.31;87.44
32298;BME280;18782;48.984;8.548;2023-02-02T02:56:55;100747.28;;;6.28;87.42
32298;BME280;18782;48.984;8.548;2023-02-02T02:59:34;100733.78;;;6.31;87.95
32298;BME280;18782;48.984;8.548;2023-02-02T03:02:13;100736.81;;;6.24;87.85
32298;BME280;18782;48.984;8.548;2023-02-02T03:04:52;100742.09;;;6.27;87.94
32298;BME280;18782;48.984;8.548;2023-02-02T03:07:26;100761.75;;;6.28;88.27
32298;BME280;18782;48.984;8.548;2023-02-02T03:09:55;100712.53;;;6.32;87.60
32298;BME280;18782;48.984;8.548;2023-02-02T03:12:24;100749.66;;;6.25;87.86
32298;BME280;18782;48.984;8.548;2023-02-02T03:14:52;100724.19;;;6.27;87.76
32298;BME280;18782;48.984;8.548;2023-02-02T03:17:20;100735.13;;;6.24;88.39
32298;BME280;18782;48.984;8.548;2023-02-02T03:19:49;100730.19;;;6.27;88.28
32298;BME280;18782;48.984;8.548;2023-02-02T03:22:17;100729.47;;;6.30;88.10
32298;BME280;18782;48.984;8.548;2023-02-02T03:24:44;100736.81;;;6.24;88.56
32298;BME280;18782;48.984;8.548;2023-02-02T03:27:12;100726.09;;;6.31;88.35
32298;BME280;18782;48.984;8.548;2023-02-02T03:29:39;100729.53;;;6.32;88.29
32298;BME280;18782;48.984;8.548;2023-02-02T03:32:07;100745.78;;;6.32;87.56
32298;BME280;18782;48.984;8.548;2023-02-02T03:34:34;100745.69;;;6.31;87.54
32298;BME280;18782;48.984;8.548;2023-02-02T03:37:03;100731.22;;;6.31;87.65
32298;BME280;18782;48.984;8.548;2023-02-02T03:39:31;100743.66;;;6.25;87.91
32298;BME280;18782;48.984;8.548;2023-02-02T03:41:58;100737.75;;;6.26;87.81
32298;BME280;18782;48.984;8.548;2023-02-02T03:44:26;100742.72;;;6.23;88.46
32298;BME280;18782;48.984;8.548;2023-02-02T03:46:54;100760.69;;;6.24;88.37
32298;BME280;18782;48.984;8.548;2023-02-02T03:49:22;100740.78;;;6.19;88.65
32298;BME280;18782;48.984;8.548;2023-02-02T03:51:49;100766.16;;;6.16;88.63
32298;BME280;18782;48.984;8.548;2023-02-02T03:54:18;100755.78;;;6.13;88.95
32298;BME280;18782;48.984;8.548;2023-02-02T03:56:46;100761.16;;;6.17;88.47
32298;BME280;18782;48.984;8.548;2023-02-02T03:59:13;100758.44;;;6.14;88.52
32298;BME280;18782;48.984;8.548;2023-02-02T04:01:41;100731.63;;;6.22;88.65
32298;BME280;18782;48.984;8.548;2023-02-02T04:04:09;100750.84;;;6.16;88.10
32298;BME280;18782;48.984;8.548;2023-02-02T04:06:36;100753.31;;;6.14;88.62
32298;BME280;18782;48.984;8.548;2023-02-02T04:09:04;100750.50;;;6.10;88.92
32298;BME280;18782;48.984;8.548;2023-02-02T04:11:33;100747.31;;;6.14;88.93
32298;BME280;18782;48.984;8.548;2023-02-02T04:14:01;100749.56;;;6.08;88.79
32298;BME280;18782;48.984;8.548;2023-02-02T04:16:28;100753.16;;;6.11;88.79
32298;BME280;18782;48.984;8.548;2023-02-02T04:19:00;100755.88;;;6.14;88.94
32298;BME280;18782;48.984;8.548;2023-02-02T04:21:27;100761.41;;;6.22;88.88
32298;BME280;18782;48.984;8.548;2023-02-02T04:23:55;100761.25;;;6.19;87.91
32298;BME280;18782;48.984;8.548;2023-02-02T04:26:23;100777.72;;;6.24;87.85
32298;BME280;18782;48.984;8.548;2023-02-02T04:28:52;100757.06;;;6.21;88.06
32298;BME280;18782;48.984;8.548;2023-02-02T04:31:20;100772.88;;;6.14;88.09
32298;BME280;18782;48.984;8.548;2023-02-02T04:33:48;100777.09;;;6.28;87.71
32298;BME280;18782;48.984;8.548;2023-02-02T04:36:15;100776.09;;;6.26;88.18
32298;BME280;18782;48.984;8.548;2023-02-02T04:38:43;100781.69;;;6.19;87.28
32298;BME280;18782;48.984;8.548;2023-02-02T04:41:15;100780.00;;;6.19;88.10
32298;BME280;18782;48.984;8.548;2023-02-02T04:43:44;100797.22;;;6.22;87.95
32298;BME280;18782;48.984;8.548;2023-02-02T04:46:14;100766.34;;;6.19;87.15
32298;BME280;18782;48.984;8.548;2023-02-02T04:48:41;100777.72;;;6.24;87.92
32298;BME280;18782;48.984;8.548;2023-02-02T04:51:11;100777.38;;;6.18;88.05
32298;BME280;18782;48.984;8.548;2023-02-02T04:53:40;100786.97;;;6.22;87.94
32298;BME280;18782;48.984;8.548;2023-02-02T04:56:10;100789.97;;;6.15;88.88
32298;BME280;18782;48.984;8.548;2023-02-02T04:58:39;100790.38;;;6.06;88.82
32298;BME280;18782;48.984;8.548;2023-02-02T05:01:10;100793.81;;;6.07;88.96
32298;BME280;18782;48.984;8.548;2023-02-02T05:03:39;100793.06;;;6.09;88.44
32298;BME280;18782;48.984;8.548;2023-02-02T05:06:10;100799.19;;;6.11;89.16
32298;BME280;18782;48.984;8.548;2023-02-02T05:08:41;100798.44;;;6.14;89.13
32298;BME280;18782;48.984;8.548;2023-02-02T05:11:14;100823.13;;;6.13;89.02
32298;BME280;18782;48.984;8.548;2023-02-02T05:13:44;100795.72;;;6.11;89.16
32298;BME280;18782;48.984;8.548;2023-02-02T05:16:13;100799.19;;;6.11;88.79
32298;BME280;18782;48.984;8.548;2023-02-02T05:18:47;100796.91;;;6.01;89.25
32298;BME280;18782;48.984;8.548;2023-02-02T05:21:14;100808.16;;;6.05;89.25
32298;BME280;18782;48.984;8.548;2023-02-02T05:23:42;100796.50;;;6.10;89.43
32298;BME280;18782;48.984;8.548;2023-02-02T05:26:13;100813.91;;;6.00;89.86
32298;BME280;18782;48.984;8.548;2023-02-02T05:28:42;100841.50;;;6.06;89.13
32298;BME280;18782;48.984;8.548;2023-02-02T05:31:10;100827.19;;;6.10;89.48
32298;BME280;18782;48.984;8.548;2023-02-02T05:33:38;100820.16;;;6.06;88.87
32298;BME280;18782;48.984;8.548;2023-02-02T05:36:07;100820.16;;;6.06;88.92
32298;BME280;18782;48.984;8.548;2023-02-02T05:38:35;100825.28;;;6.06;89.58
32298;BME280;18782;48.984;8.548;2023-02-02T05:41:03;100831.41;;;6.09;89.47
32298;BME280;18782;48.984;8.548;2023-02-02T05:43:31;100831.06;;;6.03;89.81
32298;BME280;18782;48.984;8.548;2023-02-02T05:45:59;100828.78;;;6.08;89.66
32298;BME280;18782;48.984;8.548;2023-02-02T05:48:27;100856.28;;;6.12;89.14
32298;BME280;18782;48.984;8.548;2023-02-02T05:50:58;100852.13;;;6.14;88.79
32298;BME280;18782;48.984;8.548;2023-02-02T05:53:29;100836.44;;;6.08;89.09
32298;BME280;18782;48.984;8.548;2023-02-02T05:55:58;100832.13;;;6.07;89.54
32298;BME280;18782;48.984;8.548;2023-02-02T05:58:26;100856.81;;;6.06;89.26
32298;BME280;18782;48.984;8.548;2023-02-02T06:00:54;100841.63;;;6.09;89.51
32298;BME280;18782;48.984;8.548;2023-02-02T06:03:22;100853.09;;;6.16;88.61
32298;BME280;18782;48.984;8.548;2023-02-02T06:05:50;100847.81;;;6.13;88.81
32298;BME280;18782;48.984;8.548;2023-02-02T06:08:18;100843.94;;;6.05;89.07
32298;BME280;18782;48.984;8.548;2023-02-02T06:10:47;100856.03;;;6.07;89.25
32298;BME280;18782;48.984;8.548;2023-02-02T06:13:14;100848.63;;;6.12;88.75
32298;BME280;18782;48.984;8.548;2023-02-02T06:15:42;100863.69;;;6.22;88.49
32298;BME280;18782;48.984;8.548;2023-02-02T06:18:09;100856.78;;;6.21;88.94
32298;BME280;18782;48.984;8.548;2023-02-02T06:20:37;100844.81;;;6.20;88.62
32298;BME280;18782;48.984;8.548;2023-02-02T06:23:05;100849.47;;;6.27;88.94
32298;BME280;18782;48.984;8.548;2023-02-02T06:25:33;100858.19;;;6.16;89.92
32298;BME280;18782;48.984;8.548;2023-02-02T06:28:02;100858.19;;;6.16;89.53
32298;BME280;18782;48.984;8.548;2023-02-02T06:30:30;100843.50;;;6.12;90.33
32298;BME280;18782;48.984;8.548;2023-02-02T06:32:58;100855.75;;;6.03;90.80
32298;BME280;18782;48.984;8.548;2023-02-02T06:35:26;100842.19;;;6.04;90.30
32298;BME280;18782;48.984;8.548;2023-02-02T06:37:54;100842.03;;;6.00;91.32
32298;BME280;18782;48.984;8.548;2023-02-02T06:40:21;100832.66;;;5.86;91.74
32298;BME280;18782;48.984;8.548;2023-02-02T06:42:54;100833.91;;;5.93;91.53
32298;BME280;18782;48.984;8.548;2023-02-02T06:45:23;100855.44;;;5.83;92.91
32298;BME280;18782;48.984;8.548;2023-02-02T06:47:52;100861.56;;;5.85;92.20
32298;BME280;18782;48.984;8.548;2023-02-02T06:50:20;100839.31;;;5.84;93.06
32298;BME280;18782;48.984;8.548;2023-02-02T06:52:48;100854.16;;;6.05;94.10
32298;BME280;18782;48.984;8.548;2023-02-02T06:55:16;100837.13;;;6.20;91.62
32298;BME280;18782;48.984;8.548;2023-02-02T06:57:44;100842.16;;;6.33;90.47
32298;BME280;18782;48.984;8.548;2023-02-02T07:00:13;100838.28;;;6.25;89.12
32298;BME280;18782;48.984;8.548;2023-02-02T07:02:44;100849.91;;;6.20;90.13
32298;BME280;18782;48.984;8.548;2023-02-02T07:05:12;100855.22;;;6.08;90.53
32298;BME280;18782;48.984;8.548;2023-02-02T07:07:40;100831.97;;;6.04;90.93
32298;BME280;18782;48.984;8.548;2023-02-02T07:10:08;100837.41;;;6.10;90.56
32298;BME280;18782;48.984;8.548;2023-02-02T07:12:55;100837.75;;;6.16;90.86
32298;BME280;18782;48.984;8.548;2023-02-02T07:15:23;100857.97;;;6.11;90.60
32298;BME280;18782;48.984;8.548;2023-02-02T07:17:54;100844.47;;;6.14;90.64
32298;BME280;18782;48.984;8.548;2023-02-02T07:20:22;100854.69;;;6.14;90.95
32298;BME280;18782;48.984;8.548;2023-02-02T07:22:49;100844.19;;;6.09;90.96
32298;BME280;18782;48.984;8.548;2023-02-02T07:25:17;100869.06;;;6.12;90.73
32298;BME280;18782;48.984;8.548;2023-02-02T07:27:44;100871.78;;;6.15;90.37
32298;BME280;18782;48.984;8.548;2023-02-02T07:30:13;100851.66;;;6.21;90.66
32298;BME280;18782;48.984;8.548;2023-02-02T07:32:45;100845.69;;;6.20;90.15
32298;BME280;18782;48.984;8.548;2023-02-02T07:35:15;100870.56;;;6.23;90.14
32298;BME280;18782;48.984;8.548;2023-02-02T07:37:43;100853.94;;;6.31;89.97
32298;BME280;18782;48.984;8.548;2023-02-02T07:40:11;100859.25;;;6.34;89.79
32298;BME280;18782;48.984;8.548;2023-02-02T07:42:39;100830.16;;;6.32;89.56
32298;BME280;18782;48.984;8.548;2023-02-02T07:45:07;100830.16;;;6.32;89.75
32298;BME280;18782;48.984;8.548;2023-02-02T07:47:57;100823.63;;;6.37;89.10
32298;BME280;18782;48.984;8.548;2023-02-02T07:50:29;100825.53;;;6.41;88.74
32298;BME280;18782;48.984;8.548;2023-02-02T07:52:57;100837.56;;;6.42;89.12
32298;BME280;18782;48.984;8.548;2023-02-02T07:55:25;100834.53;;;6.49;88.79
32298;BME280;18782;48.984;8.548;2023-02-02T07:57:53;100843.00;;;6.48;88.23
32298;BME280;18782;48.984;8.548;2023-02-02T08:00:24;100839.72;;;6.51;88.38
32298;BME280;18782;48.984;8.548;2023-02-02T08:02:52;100860.63;;;6.59;88.29
32298;BME280;18782;48.984;8.548;2023-02-02T08:05:20;100847.97;;;6.62;88.15
32298;BME280;18782;48.984;8.548;2023-02-02T08:07:49;100851.34;;;6.61;88.08
32298;BME280;18782;48.984;8.548;2023-02-02T08:10:17;100860.94;;;6.65;87.10
32298;BME280;18782;48.984;8.548;2023-02-02T08:12:45;100856.88;;;6.68;87.43
32298;BME280;18782;48.984;8.548;2023-02-02T08:15:12;100878.22;;;6.69;87.12
32298;BME280;18782;48.984;8.548;2023-02-02T08:17:43;100891.09;;;6.70;87.53
32298;BME280;18782;48.984;8.548;2023-02-02T08:20:12;100891.47;;;6.62;87.50
32298;BME280;18782;48.984;8.548;2023-02-02T08:22:40;100889.22;;;6.68;87.36
32298;BME280;18782;48.984;8.548;2023-02-02T08:25:09;100879.97;;;6.70;87.65
32298;BME280;18782;48.984;8.548;2023-02-02T08:27:36;100896.03;;;6.67;87.50
32298;BME280;18782;48.984;8.548;2023-02-02T08:30:05;100917.16;;;6.63;87.64
32298;BME280;18782;48.984;8.548;2023-02-02T08:32:32;100895.34;;;6.70;87.12
32298;BME280;18782;48.984;8.548;2023-02-02T08:35:00;100917.91;;;6.62;87.67
32298;BME280;18782;48.984;8.548;2023-02-02T08:37:28;100914.94;;;6.54;87.77
32298;BME280;18782;48.984;8.548;2023-02-02T08:39:55;100912.84;;;6.47;88.22
32298;BME280;18782;48.984;8.548;2023-02-02T08:42:24;100920.06;;;6.54;87.97
32298;BME280;18782;48.984;8.548;2023-02-02T08:44:52;100933.66;;;6.53;87.78
32298;BME280;18782;48.984;8.548;2023-02-02T08:47:39;100923.44;;;6.53;87.79
32298;BME280;18782;48.984;8.548;2023-02-02T08:50:08;100918.38;;;6.55;87.91
32298;BME280;18782;48.984;8.548;2023-02-02T08:52:36;100932.06;;;6.56;87.56
32298;BME280;18782;48.984;8.548;2023-02-02T08:55:04;100928.63;;;6.55;88.47
32298;BME280;18782;48.984;8.548;2023-02-02T08:57:34;100913.34;;;6.57;88.02
32298;BME280;18782;48.984;8.548;2023-02-02T09:00:02;100913.53;;;6.60;88.12
32298;BME280;18782;48.984;8.548;2023-02-02T09:02:29;100910.50;;;6.67;87.78
32298;BME280;18782;48.984;8.548;2023-02-02T09:04:57;100915.63;;;6.67;87.62
32298;BME280;18782;48.984;8.548;2023-02-02T09:07:25;100917.75;;;6.74;87.92
32298;BME280;18782;48.984;8.548;2023-02-02T09:09:53;100932.44;;;6.78;87.82
32298;BME280;18782;48.984;8.548;2023-02-02T09:12:23;100912.78;;;6.77;87.46
32298;BME280;18782;48.984;8.548;2023-02-02T09:14:55;100935.88;;;6.78;86.97
32298;BME280;18782;48.984;8.548;2023-02-02T09:17:24;100928.94;;;6.76;87.37
32298;BME280;18782;48.984;8.548;2023-02-02T09:19:56;100932.63;;;6.81;87.40
32298;BME280;18782;48.984;8.548;2023-02-02T09:22:25;100916.47;;;6.82;87.36
32298;BME280;18782;48.984;8.548;2023-02-02T09:24:55;100929.88;;;6.78;87.51
32298;BME280;18782;48.984;8.548;2023-02-02T09:27:24;100917.09;;;6.78;87.34
32298;BME280;18782;48.984;8.548;2023-02-02T09:29:54;100927.03;;;6.88;86.86
32298;BME280;18782;48.984;8.548;2023-02-02T09:32:24;100920.34;;;6.90;87.31
32298;BME280;18782;48.984;8.548;2023-02-02T09:34:53;100930.91;;;6.96;86.55
32298;BME280;18782;48.984;8.548;2023-02-02T09:37:22;100931.56;;;7.09;86.35
32298;BME280;18782;48.984;8.548;2023-02-02T09:39:52;100930.13;;;7.14;85.16
32298;BME280;18782;48.984;8.548;2023-02-02T09:42:34;100931.56;;;7.09;86.16
32298;BME280;18782;48.984;8.548;2023-02-02T09:45:17;100952.38;;;7.15;85.73
32298;BME280;18782;48.984;8.548;2023-02-02T09:47:54;100952.38;;;7.15;85.94
32298;BME280;18782;48.984;8.548;2023-02-02T09:50:42;100956.88;;;7.19;85.33
32298;BME280;18782;48.984;8.548;2023-02-02T09:53:17;100958.00;;;7.24;85.32
32298;BME280;18782;48.984;8.548;2023-02-02T09:55:47;100979.41;;;7.10;86.05
32298;BME280;18782;48.984;8.548;2023-02-02T09:58:19;100970.44;;;7.01;85.98
32298;BME280;18782;48.984;8.548;2023-02-02T10:00:54;100947.03;;;7.10;85.89
32298;BME280;18782;48.984;8.548;2023-02-02T10:03:27;100932.78;;;7.15;86.08
32298;BME280;18782;48.984;8.548;2023-02-02T10:06:02;100947.91;;;7.11;85.92
32298;BME280;18782;48.984;8.548;2023-02-02T10:08:33;100941.97;;;7.12;86.28
32298;BME280;18782;48.984;8.548;2023-02-02T10:11:09;100948.00;;;7.28;85.96
32298;BME280;18782;48.984;8.548;2023-02-02T10:13:42;100949.53;;;7.41;84.71
32298;BME280;18782;48.984;8.548;2023-02-02T10:16:14;100957.88;;;7.53;84.20
32298;BME280;18782;48.984;8.548;2023-02-02T10:18:47;100971.50;;;7.69;83.38
32298;BME280;18782;48.984;8.548;2023-02-02T10:21:24;100963.13;;;7.56;83.96
32298;BME280;18782;48.984;8.548;2023-02-02T10:23:54;100959.25;;;7.47;84.72
32298;BME280;18782;48.984;8.548;2023-02-02T10:26:29;100964.75;;;7.54;84.51
32298;BME280;18782;48.984;8.548;2023-02-02T10:29:07;100963.81;;;7.52;84.44
32298;BME280;18782;48.984;8.548;2023-02-02T10:31:48;100965.25;;;7.64;84.72
32298;BME280;18782;48.984;8.548;2023-02-02T10:34:22;100957.00;;;7.69;84.25
32298;BME280;18782;48.984;8.548;2023-02-02T10:37:19;100954.75;;;7.75;83.75
32298;BME280;18782;48.984;8.548;2023-02-02T10:40:01;100966.41;;;7.87;82.68
32298;BME280;18782;48.984;8.548;2023-02-02T10:42:39;100970.13;;;7.75;83.59
32298;BME280;18782;48.984;8.548;2023-02-02T10:45:13;100966.03;;;7.79;83.46
32298;BME280;18782;48.984;8.548;2023-02-02T10:47:46;100965.25;;;7.64;84.17
32298;BME280;18782;48.984;8.548;2023-02-02T10:50:16;100966.81;;;7.62;84.12
32298;BME280;18782;48.984;8.548;2023-02-02T10:52:47;100964.44;;;7.48;85.04
32298;BME280;18782;48.984;8.548;2023-02-02T10:55:20;100976.38;;;7.64;84.86
32298;BME280;18782;48.984;8.548;2023-02-02T10:57:52;100972.75;;;7.44;85.50
32298;BME280;18782;48.984;8.548;2023-02-02T11:00:29;100971.50;;;7.52;85.34
32298;BME280;18782;48.984;8.548;2023-02-02T11:02:59;100974.81;;;7.51;85.03
32298;BME280;18782;48.984;8.548;2023-02-02T11:05:30;100966.19;;;7.49;85.00
32298;BME280;18782;48.984;8.548;2023-02-02T11:08:18;100954.44;;;7.53;85.14
32298;BME280;18782;48.984;8.548;2023-02-02T11:10:49;100958.19;;;7.59;85.04
32298;BME280;18782;48.984;8.548;2023-02-02T11:13:26;100955.69;;;7.61;85.23
32298;BME280;18782;48.984;8.548;2023-02-02T11:16:25;100964.59;;;7.68;84.58
32298;BME280;18782;48.984;8.548;2023-02-02T11:19:22;100966.19;;;7.66;84.43
32298;BME280;18782;48.984;8.548;2023-02-02T11:21:52;100985.25;;;7.71;83.62
32298;BME280;18782;48.984;8.548;2023-02-02T11:24:23;100972.91;;;7.80;83.93
32298;BME280;18782;48.984;8.548;2023-02-02T11:26:54;100978.06;;;7.80;82.98
32298;BME280;18782;48.984;8.548;2023-02-02T11:29:26;100988.31;;;7.80;83.06
32298;BME280;18782;48.984;8.548;2023-02-02T11:31:56;100996.06;;;7.81;82.53
32298;BME280;18782;48.984;8.548;2023-02-02T11:34:26;101009.69;;;7.80;83.22
32298;BME280;18782;48.984;8.548;2023-02-02T11:39:41;100975.63;;;7.67;83.69
32298;BME280;18782;48.984;8.548;2023-02-02T11:42:13;100978.69;;;7.76;83.25
32298;BME280;18782;48.984;8.548;2023-02-02T11:44:45;100978.69;;;7.76;82.68
32298;BME280;18782;48.984;8.548;2023-02-02T11:47:18;100984.13;;;7.66;83.37
32298;BME280;18782;48.984;8.548;2023-02-02T11:49:49;100970.19;;;7.61;83.11
32298;BME280;18782;48.984;8.548;2023-02-02T11:52:20;100974.19;;;7.72;82.75
32298;BME280;18782;48.984;8.548;2023-02-02T11:54:51;100971.38;;;7.67;83.14
32298;BME280;18782;48.984;8.548;2023-02-02T11:57:21;100963.06;;;7.71;82.31
32298;BME280;18782;48.984;8.548;2023-02-02T11:59:50;100965.00;;;7.75;82.81
32298;BME280;18782;48.984;8.548;2023-02-02T12:02:27;100964.91;;;7.74;82.62
32298;BME280;18782;48.984;8.548;2023-02-02T12:07:50;100964.75;;;7.71;82.76
32298;BME280;18782;48.984;8.548;2023-02-02T12:10:19;100956.25;;;7.72;82.92
32298;BME280;18782;48.984;8.548;2023-02-02T12:12:59;100971.72;;;7.73;82.42
32298;BME280;18782;48.984;8.548;2023-02-02T12:15:42;100953.56;;;7.69;82.76
32298;BME280;18782;48.984;8.548;2023-02-02T12:18:32;100950.34;;;7.73;82.80
32298;BME280;18782;48.984;8.548;2023-02-02T12:21:06;100942.81;;;7.76;82.19
32298;BME280;18782;48.984;8.548;2023-02-02T12:23:48;100948.25;;;7.66;82.66
32298;BME280;18782;48.984;8.548;2023-02-02T12:26:20;100961.72;;;7.78;82.15
32298;BME280;18782;48.984;8.548;2023-02-02T12:29:20;100967.22;;;7.85;81.79
32298;BME280;18782;48.984;8.548;2023-02-02T12:32:05;100963.78;;;7.85;82.06
32298;BME280;18782;48.984;8.548;2023-02-02T12:34:48;100966.34;;;7.85;82.08
32298;BME280;18782;48.984;8.548;2023-02-02T12:37:28;100973.56;;;7.76;82.23
32298;BME280;18782;48.984;8.548;2023-02-02T12:40:15;100965.31;;;7.81;82.10
32298;BME280;18782;48.984;8.548;2023-02-02T12:43:01;100965.53;;;7.86;81.79
32298;BME280;18782;48.984;8.548;2023-02-02T12:45:41;100993.59;;;7.83;82.10
32298;BME280;18782;48.984;8.548;2023-02-02T12:48:18;100979.66;;;7.78;82.51
32298;BME280;18782;48.984;8.548;2023-02-02T12:50:56;100964.59;;;7.84;81.99
32298;BME280;18782;48.984;8.548;2023-02-02T12:53:37;100976.09;;;7.92;81.42
32298;BME280;18782;48.984;8.548;2023-02-02T12:56:19;100983.81;;;7.92;81.57
32298;BME280;18782;48.984;8.548;2023-02-02T12:58:53;100977.56;;;7.87;81.76
32298;BME280;18782;48.984;8.548;2023-02-02T13:04:41;100966.72;;;7.93;81.81
32298;BME280;18782;48.984;8.548;2023-02-02T13:07:35;100965.63;;;7.88;81.69
32298;BME280;18782;48.984;8.548;2023-02-02T13:10:11;100961.03;;;7.98;81.43
32298;BME280;18782;48.984;8.548;2023-02-02T13:12:47;100965.53;;;8.02;81.20
32298;BME280;18782;48.984;8.548;2023-02-02T13:15:19;100954.97;;;7.96;81.09
32298;BME280;18782;48.984;8.548;2023-02-02T13:17:52;100953.84;;;7.91;81.55
32298;BME280;18782;48.984;8.548;2023-02-02T13:20:30;100951.75;;;8.00;80.98
32298;BME280;18782;48.984;8.548;2023-02-02T13:23:05;100956.41;;;7.91;81.07
32298;BME280;18782;48.984;8.548;2023-02-02T13:25:36;100959.38;;;7.99;81.29
32298;BME280;18782;48.984;8.548;2023-02-02T13:28:16;100989.56;;;8.04;80.75
32298;BME280;18782;48.984;8.548;2023-02-02T13:30:46;100971.78;;;7.91;81.12
32298;BME280;18782;48.984;8.548;2023-02-02T13:33:23;100966.66;;;7.91;81.12
32298;BME280;18782;48.984;8.548;2023-02-02T13:35:53;100985.25;;;7.87;81.45